createdAt,value
2022-12-25T00:03:39.112Z,80.10
2022-12-25T00:11:44.537Z,80.10
2022-12-25T00:19:52.641Z,80.10
2022-12-25T00:27:58.126Z,80.00
2022-12-25T00:36:06.998Z,80.60
2022-12-25T00:44:13.784Z,80.60
2022-12-25T00:52:21.935Z,80.70
2022-12-25T01:00:27.277Z,80.70
2022-12-25T01:08:37.749Z,81.20
2022-12-25T01:16:43.645Z,81.20
2022-12-25T01:24:51.706Z,81.60
2022-12-25T01:32:58.184Z,82.40
2022-12-25T01:41:06.345Z,82.50
2022-12-25T01:49:14.966Z,82.70
2022-12-25T01:57:28.043Z,82.90
2022-12-25T02:05:36.116Z,82.80
2022-12-25T02:13:44.219Z,82.80
2022-12-25T02:22:03.821Z,82.80
2022-12-25T02:30:14.201Z,82.70
2022-12-25T02:38:23.351Z,82.70
2022-12-25T02:46:46.382Z,82.80
2022-12-25T02:55:24.299Z,83.00
2022-12-25T03:03:48.837Z,83.10
2022-12-25T03:12:01.873Z,83.10
2022-12-25T03:20:35.523Z,83.20
2022-12-25T03:28:40.849Z,83.20
2022-12-25T03:37:02.340Z,83.40
2022-12-25T03:45:32.973Z,83.20
2022-12-25T03:53:57.794Z,83.20
2022-12-25T04:02:15.673Z,83.00
2022-12-25T04:10:36.044Z,83.50
2022-12-25T04:18:54.185Z,83.80
2022-12-25T04:27:17.393Z,84.30
2022-12-25T04:35:35.148Z,84.20
2022-12-25T04:43:43.247Z,84.40
2022-12-25T04:51:48.672Z,84.20
2022-12-25T04:59:56.740Z,83.90
2022-12-25T05:08:02.060Z,84.30
2022-12-25T05:16:15.455Z,84.50
2022-12-25T05:24:21.403Z,84.20
2022-12-25T05:32:29.587Z,84.30
2022-12-25T05:40:37.017Z,84.60
2022-12-25T05:48:45.380Z,84.60
2022-12-25T05:56:50.621Z,84.50
2022-12-25T06:04:58.678Z,84.40
2022-12-25T06:13:04.205Z,84.20
2022-12-25T06:21:14.516Z,84.00
2022-12-25T06:29:20.075Z,84.00
2022-12-25T06:37:28.193Z,84.00
2022-12-25T06:45:33.778Z,84.20
2022-12-25T06:53:42.485Z,84.00
2022-12-25T07:01:50.654Z,84.20
2022-12-25T07:09:58.835Z,84.20
2022-12-25T07:18:04.693Z,83.80
2022-12-25T07:26:14.721Z,83.60
2022-12-25T07:34:20.567Z,83.50
2022-12-25T07:42:28.759Z,83.40
2022-12-25T07:50:34.463Z,82.60
2022-12-25T07:58:42.612Z,82.50
2022-12-25T08:06:48.135Z,82.50
2022-12-25T08:14:56.307Z,82.10
2022-12-25T08:23:02.816Z,81.90
2022-12-25T08:31:17.079Z,81.50
2022-12-25T08:39:22.661Z,80.90
2022-12-25T08:47:30.728Z,81.20
2022-12-25T08:55:36.113Z,81.00
2022-12-25T09:03:44.352Z,80.60
2022-12-25T09:11:49.911Z,79.90
2022-12-25T09:19:58.072Z,79.70
2022-12-25T09:28:03.662Z,79.70
2022-12-25T09:36:14.924Z,79.90
2022-12-25T09:44:24.082Z,80.60
2022-12-25T09:52:40.476Z,80.00
2022-12-25T10:00:57.537Z,79.10
2022-12-25T10:09:26.826Z,79.60
2022-12-25T10:17:43.674Z,78.80
2022-12-25T10:25:51.837Z,79.00
2022-12-25T10:33:58.508Z,78.60
2022-12-25T10:42:26.729Z,78.80
2022-12-25T10:50:33.919Z,77.60
2022-12-25T10:58:41.978Z,76.40
2022-12-25T11:06:47.568Z,76.40
2022-12-25T11:15:04.472Z,75.60
2022-12-25T11:23:13.597Z,75.00
2022-12-25T11:31:24.646Z,74.60
2022-12-25T11:39:32.504Z,73.20
2022-12-25T11:47:45.107Z,72.40
2022-12-25T11:55:55.029Z,71.50
2022-12-25T12:04:04.228Z,71.20
2022-12-25T12:12:13.350Z,70.70
2022-12-25T12:20:32.927Z,69.90
2022-12-25T12:28:47.784Z,70.00
2022-12-25T12:37:03.952Z,70.00
2022-12-25T12:45:19.325Z,70.00
2022-12-25T12:53:35.024Z,69.80
2022-12-25T13:01:51.433Z,70.90
2022-12-25T13:10:10.623Z,71.40
2022-12-25T13:18:17.143Z,71.00
2022-12-25T13:26:25.188Z,71.00
2022-12-25T13:34:34.152Z,70.50
2022-12-25T13:42:42.860Z,70.40
2022-12-25T13:50:49.369Z,70.30
2022-12-25T13:58:57.653Z,69.40
2022-12-25T14:07:12.664Z,70.60
2022-12-25T14:15:24.019Z,71.80
2022-12-25T14:23:30.337Z,72.80
2022-12-25T14:31:39.842Z,73.30
2022-12-25T14:39:48.459Z,73.50
2022-12-25T14:48:00.334Z,74.30
2022-12-25T14:56:06.449Z,74.10
2022-12-25T15:04:24.527Z,74.20
2022-12-25T15:12:30.201Z,75.60
2022-12-25T15:20:38.899Z,77.20
2022-12-25T15:28:44.752Z,76.80
2022-12-25T15:36:54.773Z,77.20
2022-12-25T15:45:00.667Z,77.60
2022-12-25T15:53:09.111Z,78.20
2022-12-25T16:01:18.301Z,78.90
2022-12-25T16:09:27.695Z,80.00
2022-12-25T16:17:33.201Z,79.50
2022-12-25T16:25:41.240Z,79.60
2022-12-25T16:33:46.693Z,79.70
2022-12-25T16:41:54.870Z,80.00
2022-12-25T16:50:00.565Z,80.00
2022-12-25T16:58:19.413Z,79.80
2022-12-25T17:06:27.110Z,79.80
2022-12-25T17:14:35.564Z,80.00
2022-12-25T17:22:41.054Z,80.30
2022-12-25T17:30:49.102Z,81.40
2022-12-25T17:38:54.533Z,80.50
2022-12-25T17:47:02.661Z,80.80
2022-12-25T17:55:09.528Z,81.30
2022-12-25T18:03:18.488Z,81.70
2022-12-25T18:11:29.335Z,81.90
2022-12-25T18:19:37.444Z,82.20
2022-12-25T18:27:45.042Z,83.00
2022-12-25T18:35:53.402Z,83.40
2022-12-25T18:43:59.850Z,83.40
2022-12-25T18:52:47.715Z,83.80
2022-12-25T19:00:34.158Z,83.90
2022-12-25T19:08:42.296Z,84.10
2022-12-25T19:16:47.755Z,84.50
2022-12-25T19:24:55.718Z,84.20
2022-12-25T19:33:01.311Z,84.40
2022-12-25T19:41:13.077Z,83.90
2022-12-25T19:49:18.494Z,84.10
2022-12-25T19:57:26.521Z,84.50
2022-12-25T20:05:32.305Z,84.90
2022-12-25T20:13:40.667Z,85.10
2022-12-25T20:21:46.214Z,85.10
2022-12-25T20:30:16.887Z,84.50
2022-12-25T20:38:22.420Z,84.10
2022-12-25T20:46:30.484Z,84.50
2022-12-25T20:54:35.994Z,84.40
2022-12-25T21:02:44.618Z,84.20
2022-12-25T21:10:52.476Z,83.70
2022-12-25T21:19:01.307Z,83.80
2022-12-25T21:27:06.993Z,84.00
2022-12-25T21:35:15.309Z,84.60
2022-12-25T21:43:31.414Z,85.10
2022-12-25T21:51:51.624Z,85.10
2022-12-25T21:59:57.280Z,84.80
2022-12-25T22:08:05.566Z,84.60
2022-12-25T22:16:23.748Z,84.10
2022-12-25T22:24:31.876Z,84.00
2022-12-25T22:32:37.868Z,84.10
2022-12-25T22:40:45.956Z,84.20
2022-12-25T22:48:51.601Z,85.40
2022-12-25T22:57:00.470Z,85.50
2022-12-25T23:05:06.291Z,84.70
2022-12-25T23:13:27.266Z,86.10
2022-12-25T23:21:45.135Z,86.10
2022-12-25T23:29:53.117Z,86.20
2022-12-25T23:37:58.867Z,87.20
2022-12-25T23:46:07.047Z,87.10
2022-12-25T23:54:13.882Z,88.20
